sensor_id;sensor_type;location;lat;lon;timestamp;temperature;humidity
23827;DHT22;12094;50.822;4.376;2024-01-10T00:02:22;-2.10;99.90
23827;DHT22;12094;50.822;4.376;2024-01-10T00:04:51;-2.10;99.90
23827;DHT22;12094;50.822;4.376;2024-01-10T00:07:18;-2.10;99.90
23827;DHT22;12094;50.822;4.376;2024-01-10T00:09:47;-2.00;99.90
23827;DHT22;12094;50.822;4.376;2024-01-10T00:12:16;-2.00;99.90
23827;DHT22;12094;50.822;4.376;2024-01-10T00:14:47;-2.10;99.90
23827;DHT22;12094;50.822;4.376;2024-01-10T00:17:14;-2.10;99.90
23827;DHT22;12094;50.822;4.376;2024-01-10T00:19:42;-2.10;99.90
23827;DHT22;12094;50.822;4.376;2024-01-10T00:22:10;-2.30;99.90
23827;DHT22;12094;50.822;4.376;2024-01-10T00:24:37;-2.20;99.90
23827;DHT22;12094;50.822;4.376;2024-01-10T00:27:07;-2.20;99.90
23827;DHT22;12094;50.822;4.376;2024-01-10T00:29:35;-2.30;99.90
23827;DHT22;12094;50.822;4.376;2024-01-10T00:32:02;-2.40;99.90
23827;DHT22;12094;50.822;4.376;2024-01-10T00:34:29;-2.30;99.90
23827;DHT22;12094;50.822;4.376;2024-01-10T00:36:56;-2.40;99.90
23827;DHT22;12094;50.822;4.376;2024-01-10T00:39:25;-2.40;99.90
23827;DHT22;12094;50.822;4.376;2024-01-10T00:41:53;-2.40;99.90
23827;DHT22;12094;50.822;4.376;2024-01-10T00:44:21;-2.30;99.90
23827;DHT22;12094;50.822;4.376;2024-01-10T00:46:51;-2.30;99.90
23827;DHT22;12094;50.822;4.376;2024-01-10T00:49:20;-2.30;99.90
23827;DHT22;12094;50.822;4.376;2024-01-10T00:51:51;-2.30;99.90
23827;DHT22;12094;50.822;4.376;2024-01-10T00:54:18;-2.40;99.90
23827;DHT22;12094;50.822;4.376;2024-01-10T00:56:45;-2.40;99.90
23827;DHT22;12094;50.822;4.376;2024-01-10T00:59:12;-2.40;99.90
23827;DHT22;12094;50.822;4.376;2024-01-10T01:01:39;-2.40;99.90
23827;DHT22;12094;50.822;4.376;2024-01-10T01:04:06;-2.50;99.90
23827;DHT22;12094;50.822;4.376;2024-01-10T01:06:34;-2.50;99.90
23827;DHT22;12094;50.822;4.376;2024-01-10T01:09:01;-2.50;99.90
23827;DHT22;12094;50.822;4.376;2024-01-10T01:11:29;-2.50;99.90
23827;DHT22;12094;50.822;4.376;2024-01-10T01:13:59;-2.60;99.90
23827;DHT22;12094;50.822;4.376;2024-01-10T01:16:26;-2.60;99.90
23827;DHT22;12094;50.822;4.376;2024-01-10T01:18:53;-2.70;99.90
23827;DHT22;12094;50.822;4.376;2024-01-10T01:21:21;-2.70;99.90
23827;DHT22;12094;50.822;4.376;2024-01-10T01:23:48;-2.70;99.90
23827;DHT22;12094;50.822;4.376;2024-01-10T01:26:16;-2.70;99.90
23827;DHT22;12094;50.822;4.376;2024-01-10T01:28:46;-2.70;99.90
23827;DHT22;12094;50.822;4.376;2024-01-10T01:34:10;-2.70;99.90
23827;DHT22;12094;50.822;4.376;2024-01-10T01:36:37;-2.70;99.90
23827;DHT22;12094;50.822;4.376;2024-01-10T01:39:05;-2.70;99.90
23827;DHT22;12094;50.822;4.376;2024-01-10T01:41:32;-2.80;99.90
23827;DHT22;12094;50.822;4.376;2024-01-10T01:44:00;-2.70;99.90
23827;DHT22;12094;50.822;4.376;2024-01-10T01:46:28;-2.70;99.90
23827;DHT22;12094;50.822;4.376;2024-01-10T01:48:55;-2.70;99.90
23827;DHT22;12094;50.822;4.376;2024-01-10T01:51:23;-2.80;99.90
23827;DHT22;12094;50.822;4.376;2024-01-10T01:53:50;-2.80;99.90
23827;DHT22;12094;50.822;4.376;2024-01-10T01:56:18;-2.70;99.90
23827;DHT22;12094;50.822;4.376;2024-01-10T01:58:47;-2.70;99.90
23827;DHT22;12094;50.822;4.376;2024-01-10T02:01:16;-2.80;99.90
23827;DHT22;12094;50.822;4.376;2024-01-10T02:03:45;-2.80;99.90
23827;DHT22;12094;50.822;4.376;2024-01-10T02:06:13;-2.90;99.90
23827;DHT22;12094;50.822;4.376;2024-01-10T02:08:41;-2.90;99.90
23827;DHT22;12094;50.822;4.376;2024-01-10T02:11:12;-2.90;99.90
23827;DHT22;12094;50.822;4.376;2024-01-10T02:13:50;-2.90;99.90
23827;DHT22;12094;50.822;4.376;2024-01-10T02:16:24;-2.80;99.90
23827;DHT22;12094;50.822;4.376;2024-01-10T02:19:25;-3.00;99.90
23827;DHT22;12094;50.822;4.376;2024-01-10T02:21:45;-2.90;99.90
23827;DHT22;12094;50.822;4.376;2024-01-10T02:24:17;-2.80;99.90
23827;DHT22;12094;50.822;4.376;2024-01-10T02:26:45;-2.70;99.90
23827;DHT22;12094;50.822;4.376;2024-01-10T02:37:29;-2.80;99.90
23827;DHT22;12094;50.822;4.376;2024-01-10T02:42:29;-2.80;99.90
23827;DHT22;12094;50.822;4.376;2024-01-10T02:48:27;-2.90;99.90
23827;DHT22;12094;50.822;4.376;2024-01-10T02:50:56;-2.90;99.90
23827;DHT22;12094;50.822;4.376;2024-01-10T02:53:25;-2.90;99.90
23827;DHT22;12094;50.822;4.376;2024-01-10T03:01:41;-3.00;99.90
23827;DHT22;12094;50.822;4.376;2024-01-10T03:04:12;-3.00;99.90
23827;DHT22;12094;50.822;4.376;2024-01-10T03:06:39;-3.10;99.90
23827;DHT22;12094;50.822;4.376;2024-01-10T03:09:06;-3.00;99.90
23827;DHT22;12094;50.822;4.376;2024-01-10T03:11:34;-2.80;99.90
23827;DHT22;12094;50.822;4.376;2024-01-10T03:14:09;-2.80;99.90
23827;DHT22;12094;50.822;4.376;2024-01-10T03:16:40;-2.90;99.90
23827;DHT22;12094;50.822;4.376;2024-01-10T03:19:11;-3.00;99.90
23827;DHT22;12094;50.822;4.376;2024-01-10T03:21:39;-3.00;99.90
23827;DHT22;12094;50.822;4.376;2024-01-10T03:24:07;-3.00;99.90
23827;DHT22;12094;50.822;4.376;2024-01-10T03:26:34;-3.00;99.90
23827;DHT22;12094;50.822;4.376;2024-01-10T03:29:03;-3.00;99.90
23827;DHT22;12094;50.822;4.376;2024-01-10T03:38:17;-3.10;99.90
23827;DHT22;12094;50.822;4.376;2024-01-10T03:40:49;-3.00;99.90
23827;DHT22;12094;50.822;4.376;2024-01-10T03:43:18;-3.00;99.90
23827;DHT22;12094;50.822;4.376;2024-01-10T03:45:47;-2.90;99.90
23827;DHT22;12094;50.822;4.376;2024-01-10T03:48:14;-3.10;99.90
23827;DHT22;12094;50.822;4.376;2024-01-10T03:50:43;-3.00;99.90
23827;DHT22;12094;50.822;4.376;2024-01-10T03:53:10;-3.00;99.90
23827;DHT22;12094;50.822;4.376;2024-01-10T03:55:37;-3.10;99.90
23827;DHT22;12094;50.822;4.376;2024-01-10T03:58:08;-3.20;99.90
23827;DHT22;12094;50.822;4.376;2024-01-10T04:00:36;-3.20;99.90
23827;DHT22;12094;50.822;4.376;2024-01-10T04:03:04;-3.10;99.90
23827;DHT22;12094;50.822;4.376;2024-01-10T04:05:32;-3.10;99.90
23827;DHT22;12094;50.822;4.376;2024-01-10T04:08:00;-3.00;99.90
23827;DHT22;12094;50.822;4.376;2024-01-10T04:10:27;-3.10;99.90
23827;DHT22;12094;50.822;4.376;2024-01-10T04:12:55;-3.10;99.90
23827;DHT22;12094;50.822;4.376;2024-01-10T04:15:48;-3.20;99.90
23827;DHT22;12094;50.822;4.376;2024-01-10T04:18:15;-3.10;99.90
23827;DHT22;12094;50.822;4.376;2024-01-10T04:20:45;-3.00;99.90
23827;DHT22;12094;50.822;4.376;2024-01-10T04:23:13;-3.00;99.90
23827;DHT22;12094;50.822;4.376;2024-01-10T04:25:43;-3.00;99.90
23827;DHT22;12094;50.822;4.376;2024-01-10T04:28:12;-3.10;99.90
23827;DHT22;12094;50.822;4.376;2024-01-10T04:30:41;-3.20;99.90
23827;DHT22;12094;50.822;4.376;2024-01-10T04:33:08;-3.10;99.90
23827;DHT22;12094;50.822;4.376;2024-01-10T04:35:35;-3.10;99.90
23827;DHT22;12094;50.822;4.376;2024-01-10T04:38:04;-3.20;99.90
23827;DHT22;12094;50.822;4.376;2024-01-10T04:40:32;-3.30;99.90
23827;DHT22;12094;50.822;4.376;2024-01-10T04:43:00;-3.40;99.90
23827;DHT22;12094;50.822;4.376;2024-01-10T04:45:27;-3.30;99.90
23827;DHT22;12094;50.822;4.376;2024-01-10T04:47:54;-3.30;99.90
23827;DHT22;12094;50.822;4.376;2024-01-10T04:50:22;-3.30;99.90
23827;DHT22;12094;50.822;4.376;2024-01-10T04:52:50;-3.20;99.90
23827;DHT22;12094;50.822;4.376;2024-01-10T04:55:21;-3.20;99.90
23827;DHT22;12094;50.822;4.376;2024-01-10T05:03:52;-3.20;99.90
23827;DHT22;12094;50.822;4.376;2024-01-10T05:06:19;-3.30;99.90
23827;DHT22;12094;50.822;4.376;2024-01-10T05:08:47;-3.30;99.90
23827;DHT22;12094;50.822;4.376;2024-01-10T05:11:17;-3.40;99.90
23827;DHT22;12094;50.822;4.376;2024-01-10T05:13:44;-3.50;99.90
23827;DHT22;12094;50.822;4.376;2024-01-10T05:16:11;-3.40;99.90
23827;DHT22;12094;50.822;4.376;2024-01-10T05:18:39;-3.50;99.90
23827;DHT22;12094;50.822;4.376;2024-01-10T05:21:06;-3.40;99.90
23827;DHT22;12094;50.822;4.376;2024-01-10T05:23:33;-3.40;99.90
23827;DHT22;12094;50.822;4.376;2024-01-10T05:26:01;-3.50;99.90
23827;DHT22;12094;50.822;4.376;2024-01-10T05:28:28;-3.40;99.90
23827;DHT22;12094;50.822;4.376;2024-01-10T05:30:55;-3.30;99.90
23827;DHT22;12094;50.822;4.376;2024-01-10T05:33:28;-3.30;99.90
23827;DHT22;12094;50.822;4.376;2024-01-10T05:35:59;-3.30;99.90
23827;DHT22;12094;50.822;4.376;2024-01-10T05:38:29;-3.40;99.90
23827;DHT22;12094;50.822;4.376;2024-01-10T05:40:56;-3.50;99.90
23827;DHT22;12094;50.822;4.376;2024-01-10T05:43:23;-3.40;99.90
23827;DHT22;12094;50.822;4.376;2024-01-10T05:45:51;-3.50;99.90
23827;DHT22;12094;50.822;4.376;2024-01-10T05:48:20;-3.50;99.90
23827;DHT22;12094;50.822;4.376;2024-01-10T05:50:49;-3.50;99.90
23827;DHT22;12094;50.822;4.376;2024-01-10T05:53:17;-3.40;99.90
23827;DHT22;12094;50.822;4.376;2024-01-10T05:55:45;-3.30;99.90
23827;DHT22;12094;50.822;4.376;2024-01-10T05:58:15;-3.30;99.90
23827;DHT22;12094;50.822;4.376;2024-01-10T06:00:44;-3.30;99.90
23827;DHT22;12094;50.822;4.376;2024-01-10T06:03:11;-3.30;99.90
23827;DHT22;12094;50.822;4.376;2024-01-10T06:05:38;-3.30;99.90
23827;DHT22;12094;50.822;4.376;2024-01-10T06:08:06;-3.40;99.90
23827;DHT22;12094;50.822;4.376;2024-01-10T06:10:33;-3.30;99.90
23827;DHT22;12094;50.822;4.376;2024-01-10T06:13:04;-3.40;99.90
23827;DHT22;12094;50.822;4.376;2024-01-10T06:15:31;-3.40;99.90
23827;DHT22;12094;50.822;4.376;2024-01-10T06:17:58;-3.30;99.90
23827;DHT22;12094;50.822;4.376;2024-01-10T06:20:26;-3.40;99.90
23827;DHT22;12094;50.822;4.376;2024-01-10T06:22:54;-3.30;99.90
23827;DHT22;12094;50.822;4.376;2024-01-10T06:25:21;-3.40;99.90
23827;DHT22;12094;50.822;4.376;2024-01-10T06:27:50;-3.40;99.90
23827;DHT22;12094;50.822;4.376;2024-01-10T06:30:17;-3.40;99.90
23827;DHT22;12094;50.822;4.376;2024-01-10T06:32:44;-3.40;99.90
23827;DHT22;12094;50.822;4.376;2024-01-10T06:35:14;-3.40;99.90
23827;DHT22;12094;50.822;4.376;2024-01-10T06:37:43;-3.40;99.90
23827;DHT22;12094;50.822;4.376;2024-01-10T06:40:11;-3.40;99.90
23827;DHT22;12094;50.822;4.376;2024-01-10T06:42:41;-3.30;99.90
23827;DHT22;12094;50.822;4.376;2024-01-10T06:45:11;-3.40;99.90
23827;DHT22;12094;50.822;4.376;2024-01-10T06:47:45;-3.40;99.90
23827;DHT22;12094;50.822;4.376;2024-01-10T06:50:14;-3.50;99.90
23827;DHT22;12094;50.822;4.376;2024-01-10T06:52:48;-3.40;99.90
23827;DHT22;12094;50.822;4.376;2024-01-10T06:55:17;-3.50;99.90
23827;DHT22;12094;50.822;4.376;2024-01-10T06:57:48;-3.50;99.90
23827;DHT22;12094;50.822;4.376;2024-01-10T07:00:15;-3.40;99.90
23827;DHT22;12094;50.822;4.376;2024-01-10T07:02:52;-3.30;99.90
23827;DHT22;12094;50.822;4.376;2024-01-10T07:05:21;-3.20;99.90
23827;DHT22;12094;50.822;4.376;2024-01-10T07:07:48;-3.20;99.90
23827;DHT22;12094;50.822;4.376;2024-01-10T07:10:18;-3.30;99.90
23827;DHT22;12094;50.822;4.376;2024-01-10T07:12:45;-3.30;99.90
23827;DHT22;12094;50.822;4.376;2024-01-10T07:15:27;-3.40;99.90
23827;DHT22;12094;50.822;4.376;2024-01-10T07:17:54;-3.30;99.90
23827;DHT22;12094;50.822;4.376;2024-01-10T07:20:38;-3.40;99.90
23827;DHT22;12094;50.822;4.376;2024-01-10T07:29:09;-3.40;99.90
23827;DHT22;12094;50.822;4.376;2024-01-10T07:31:37;-3.50;99.90
23827;DHT22;12094;50.822;4.376;2024-01-10T07:34:06;-3.30;99.90
23827;DHT22;12094;50.822;4.376;2024-01-10T07:39:06;-3.40;99.90
23827;DHT22;12094;50.822;4.376;2024-01-10T07:41:36;-3.50;99.90
23827;DHT22;12094;50.822;4.376;2024-01-10T07:44:09;-3.30;99.90
23827;DHT22;12094;50.822;4.376;2024-01-10T07:46:36;-3.40;99.90
23827;DHT22;12094;50.822;4.376;2024-01-10T07:49:07;-3.40;99.90
23827;DHT22;12094;50.822;4.376;2024-01-10T07:51:47;-3.50;99.90
23827;DHT22;12094;50.822;4.376;2024-01-10T07:54:18;-3.40;99.90
23827;DHT22;12094;50.822;4.376;2024-01-10T07:56:46;-3.40;99.90
23827;DHT22;12094;50.822;4.376;2024-01-10T07:59:15;-3.40;99.90
23827;DHT22;12094;50.822;4.376;2024-01-10T08:01:44;-3.40;99.90
23827;DHT22;12094;50.822;4.376;2024-01-10T08:04:21;-3.40;99.90
23827;DHT22;12094;50.822;4.376;2024-01-10T08:06:52;-3.40;99.90
23827;DHT22;12094;50.822;4.376;2024-01-10T08:09:21;-3.30;99.90
23827;DHT22;12094;50.822;4.376;2024-01-10T08:12:02;-3.20;99.90
23827;DHT22;12094;50.822;4.376;2024-01-10T08:14:31;-3.30;99.90
23827;DHT22;12094;50.822;4.376;2024-01-10T08:16:59;-3.30;99.90
23827;DHT22;12094;50.822;4.376;2024-01-10T08:19:28;-3.30;99.90
23827;DHT22;12094;50.822;4.376;2024-01-10T08:21:55;-3.30;99.90
23827;DHT22;12094;50.822;4.376;2024-01-10T08:24:24;-3.20;99.90
23827;DHT22;12094;50.822;4.376;2024-01-10T08:26:52;-3.20;99.90
23827;DHT22;12094;50.822;4.376;2024-01-10T08:29:19;-3.20;99.90
23827;DHT22;12094;50.822;4.376;2024-01-10T08:31:50;-3.10;99.90
23827;DHT22;12094;50.822;4.376;2024-01-10T08:34:21;-3.20;99.90
23827;DHT22;12094;50.822;4.376;2024-01-10T08:36:48;-3.30;99.90
23827;DHT22;12094;50.822;4.376;2024-01-10T08:39:26;-3.30;99.90
23827;DHT22;12094;50.822;4.376;2024-01-10T08:41:55;-3.30;99.90
23827;DHT22;12094;50.822;4.376;2024-01-10T08:44:22;-3.10;99.90
23827;DHT22;12094;50.822;4.376;2024-01-10T08:46:49;-3.20;99.90
23827;DHT22;12094;50.822;4.376;2024-01-10T08:49:20;-3.20;99.90
23827;DHT22;12094;50.822;4.376;2024-01-10T08:51:48;-3.20;99.90
23827;DHT22;12094;50.822;4.376;2024-01-10T08:54:19;-3.20;99.90
23827;DHT22;12094;50.822;4.376;2024-01-10T08:56:46;-3.20;99.90
23827;DHT22;12094;50.822;4.376;2024-01-10T08:59:16;-3.20;99.90
23827;DHT22;12094;50.822;4.376;2024-01-10T09:01:46;-3.10;99.90
23827;DHT22;12094;50.822;4.376;2024-01-10T09:04:14;-3.00;99.90
23827;DHT22;12094;50.822;4.376;2024-01-10T09:06:42;-3.00;99.90
23827;DHT22;12094;50.822;4.376;2024-01-10T09:09:11;-2.90;99.90
23827;DHT22;12094;50.822;4.376;2024-01-10T09:11:40;-3.00;99.90
23827;DHT22;12094;50.822;4.376;2024-01-10T09:14:12;-2.90;99.90
23827;DHT22;12094;50.822;4.376;2024-01-10T09:16:42;-2.80;99.90
23827;DHT22;12094;50.822;4.376;2024-01-10T09:19:11;-2.70;99.90
23827;DHT22;12094;50.822;4.376;2024-01-10T09:21:47;-2.70;99.90
23827;DHT22;12094;50.822;4.376;2024-01-10T09:24:25;-2.80;99.90
23827;DHT22;12094;50.822;4.376;2024-01-10T09:27:10;-2.90;99.90
23827;DHT22;12094;50.822;4.376;2024-01-10T09:29:39;-2.70;99.90
23827;DHT22;12094;50.822;4.376;2024-01-10T09:32:08;-2.60;99.90
23827;DHT22;12094;50.822;4.376;2024-01-10T09:34:36;-2.50;99.90
23827;DHT22;12094;50.822;4.376;2024-01-10T09:37:03;-2.50;99.90
23827;DHT22;12094;50.822;4.376;2024-01-10T09:39:33;-2.50;99.90
23827;DHT22;12094;50.822;4.376;2024-01-10T09:42:00;-2.40;99.90
23827;DHT22;12094;50.822;4.376;2024-01-10T09:44:29;-2.40;99.90
23827;DHT22;12094;50.822;4.376;2024-01-10T09:46:56;-2.30;99.90
23827;DHT22;12094;50.822;4.376;2024-01-10T09:49:23;-2.40;99.90
23827;DHT22;12094;50.822;4.376;2024-01-10T09:51:57;-2.40;99.90
23827;DHT22;12094;50.822;4.376;2024-01-10T09:54:29;-2.20;99.90
23827;DHT22;12094;50.822;4.376;2024-01-10T09:56:57;-2.10;99.90
23827;DHT22;12094;50.822;4.376;2024-01-10T09:59:32;-2.10;99.90
23827;DHT22;12094;50.822;4.376;2024-01-10T10:02:00;-2.00;99.90
23827;DHT22;12094;50.822;4.376;2024-01-10T10:04:34;-2.00;99.90
23827;DHT22;12094;50.822;4.376;2024-01-10T10:07:04;-1.90;99.90
23827;DHT22;12094;50.822;4.376;2024-01-10T10:09:34;-1.90;99.90
23827;DHT22;12094;50.822;4.376;2024-01-10T10:12:01;-1.90;99.90
23827;DHT22;12094;50.822;4.376;2024-01-10T10:14:31;-1.70;99.90
23827;DHT22;12094;50.822;4.376;2024-01-10T10:17:13;-1.70;99.90
23827;DHT22;12094;50.822;4.376;2024-01-10T10:19:41;-1.60;99.90
23827;DHT22;12094;50.822;4.376;2024-01-10T10:22:10;-1.50;99.90
23827;DHT22;12094;50.822;4.376;2024-01-10T10:24:37;-1.50;99.90
23827;DHT22;12094;50.822;4.376;2024-01-10T10:27:13;-1.50;99.90
23827;DHT22;12094;50.822;4.376;2024-01-10T10:29:42;-1.50;99.90
23827;DHT22;12094;50.822;4.376;2024-01-10T10:34:45;-1.40;99.90
23827;DHT22;12094;50.822;4.376;2024-01-10T10:39:44;-0.70;99.90
23827;DHT22;12094;50.822;4.376;2024-01-10T10:42:14;0.30;99.90
23827;DHT22;12094;50.822;4.376;2024-01-10T10:44:54;0.70;99.90
23827;DHT22;12094;50.822;4.376;2024-01-10T10:47:25;1.40;99.90
23827;DHT22;12094;50.822;4.376;2024-01-10T10:49:54;2.10;99.90
23827;DHT22;12094;50.822;4.376;2024-01-10T10:55:23;3.30;97.50
23827;DHT22;12094;50.822;4.376;2024-01-10T10:57:51;3.50;97.30
23827;DHT22;12094;50.822;4.376;2024-01-10T11:00:32;4.10;96.50
23827;DHT22;12094;50.822;4.376;2024-01-10T11:03:07;3.90;95.80
23827;DHT22;12094;50.822;4.376;2024-01-10T11:05:52;4.00;95.20
23827;DHT22;12094;50.822;4.376;2024-01-10T11:08:21;3.80;95.20
23827;DHT22;12094;50.822;4.376;2024-01-10T11:16:30;4.70;94.30
23827;DHT22;12094;50.822;4.376;2024-01-10T11:27:41;5.40;92.70
23827;DHT22;12094;50.822;4.376;2024-01-10T11:30:29;5.60;92.00
23827;DHT22;12094;50.822;4.376;2024-01-10T11:33:00;5.70;91.70
23827;DHT22;12094;50.822;4.376;2024-01-10T11:36:06;5.70;91.70
23827;DHT22;12094;50.822;4.376;2024-01-10T11:41:39;6.00;91.00
23827;DHT22;12094;50.822;4.376;2024-01-10T11:48:29;5.90;91.00
23827;DHT22;12094;50.822;4.376;2024-01-10T11:54:02;5.50;91.40
23827;DHT22;12094;50.822;4.376;2024-01-10T11:56:41;5.00;91.70
23827;DHT22;12094;50.822;4.376;2024-01-10T11:59:12;5.20;92.00
23827;DHT22;12094;50.822;4.376;2024-01-10T12:01:44;5.40;91.80
23827;DHT22;12094;50.822;4.376;2024-01-10T12:04:16;5.30;91.00
23827;DHT22;12094;50.822;4.376;2024-01-10T12:06:58;5.30;91.30
23827;DHT22;12094;50.822;4.376;2024-01-10T12:09:30;4.80;91.50
23827;DHT22;12094;50.822;4.376;2024-01-10T12:12:12;5.30;91.30
23827;DHT22;12094;50.822;4.376;2024-01-10T12:15:01;5.40;90.90
23827;DHT22;12094;50.822;4.376;2024-01-10T12:17:30;5.20;91.00
23827;DHT22;12094;50.822;4.376;2024-01-10T12:20:00;5.20;90.90
23827;DHT22;12094;50.822;4.376;2024-01-10T12:25:08;4.60;91.40
23827;DHT22;12094;50.822;4.376;2024-01-10T12:27:35;4.30;91.70
23827;DHT22;12094;50.822;4.376;2024-01-10T12:30:04;4.10;92.10
23827;DHT22;12094;50.822;4.376;2024-01-10T12:32:35;3.60;92.60
23827;DHT22;12094;50.822;4.376;2024-01-10T12:35:03;3.40;93.20
23827;DHT22;12094;50.822;4.376;2024-01-10T12:37:31;3.10;93.60
23827;DHT22;12094;50.822;4.376;2024-01-10T12:40:02;2.80;94.00
23827;DHT22;12094;50.822;4.376;2024-01-10T12:42:36;2.30;94.60
23827;DHT22;12094;50.822;4.376;2024-01-10T12:45:05;2.10;95.20
23827;DHT22;12094;50.822;4.376;2024-01-10T12:53:41;1.60;95.90
23827;DHT22;12094;50.822;4.376;2024-01-10T12:56:09;1.60;95.90
23827;DHT22;12094;50.822;4.376;2024-01-10T12:58:42;1.50;96.20
23827;DHT22;12094;50.822;4.376;2024-01-10T13:01:13;1.40;96.40
23827;DHT22;12094;50.822;4.376;2024-01-10T13:03:44;1.30;96.60
23827;DHT22;12094;50.822;4.376;2024-01-10T13:06:12;1.20;96.80
23827;DHT22;12094;50.822;4.376;2024-01-10T13:08:41;1.20;96.90
23827;DHT22;12094;50.822;4.376;2024-01-10T13:11:28;1.30;96.70
23827;DHT22;12094;50.822;4.376;2024-01-10T13:14:04;1.20;96.30
23827;DHT22;12094;50.822;4.376;2024-01-10T13:16:35;0.90;96.40
23827;DHT22;12094;50.822;4.376;2024-01-10T13:19:20;0.50;96.90
23827;DHT22;12094;50.822;4.376;2024-01-10T13:25:21;0.60;96.90
23827;DHT22;12094;50.822;4.376;2024-01-10T13:27:56;0.80;96.60
23827;DHT22;12094;50.822;4.376;2024-01-10T13:30:32;0.90;96.60
23827;DHT22;12094;50.822;4.376;2024-01-10T13:33:10;0.80;96.80
23827;DHT22;12094;50.822;4.376;2024-01-10T13:35:41;0.90;96.80
23827;DHT22;12094;50.822;4.376;2024-01-10T13:38:10;1.00;96.60
23827;DHT22;12094;50.822;4.376;2024-01-10T13:40:41;1.00;96.60
23827;DHT22;12094;50.822;4.376;2024-01-10T13:43:15;1.10;96.20
23827;DHT22;12094;50.822;4.376;2024-01-10T13:45:44;1.10;96.40
23827;DHT22;12094;50.822;4.376;2024-01-10T13:48:25;1.20;96.00
23827;DHT22;12094;50.822;4.376;2024-01-10T13:50:55;1.10;95.90
23827;DHT22;12094;50.822;4.376;2024-01-10T13:53:23;1.10;96.20
23827;DHT22;12094;50.822;4.376;2024-01-10T13:55:54;1.20;96.20
23827;DHT22;12094;50.822;4.376;2024-01-10T13:58:26;1.10;96.10
23827;DHT22;12094;50.822;4.376;2024-01-10T14:00:57;1.30;95.90
23827;DHT22;12094;50.822;4.376;2024-01-10T14:03:25;1.10;96.00
23827;DHT22;12094;50.822;4.376;2024-01-10T14:05:59;1.10;96.30
23827;DHT22;12094;50.822;4.376;2024-01-10T14:08:36;1.20;96.30
23827;DHT22;12094;50.822;4.376;2024-01-10T14:11:06;1.20;96.20
23827;DHT22;12094;50.822;4.376;2024-01-10T14:13:34;1.00;96.40
23827;DHT22;12094;50.822;4.376;2024-01-10T14:16:07;1.10;96.60
23827;DHT22;12094;50.822;4.376;2024-01-10T14:18:36;1.20;96.60
23827;DHT22;12094;50.822;4.376;2024-01-10T14:21:04;0.90;97.00
23827;DHT22;12094;50.822;4.376;2024-01-10T14:23:32;0.90;97.10
23827;DHT22;12094;50.822;4.376;2024-01-10T14:26:11;0.90;97.20
23827;DHT22;12094;50.822;4.376;2024-01-10T14:28:39;0.90;97.10
23827;DHT22;12094;50.822;4.376;2024-01-10T14:31:13;1.00;97.10
23827;DHT22;12094;50.822;4.376;2024-01-10T14:34:05;1.00;97.20
23827;DHT22;12094;50.822;4.376;2024-01-10T14:36:38;1.00;97.10
23827;DHT22;12094;50.822;4.376;2024-01-10T14:39:05;0.90;97.10
23827;DHT22;12094;50.822;4.376;2024-01-10T14:41:34;0.80;97.20
23827;DHT22;12094;50.822;4.376;2024-01-10T14:44:02;0.90;97.10
23827;DHT22;12094;50.822;4.376;2024-01-10T14:46:57;0.90;97.20
23827;DHT22;12094;50.822;4.376;2024-01-10T14:49:39;0.90;97.10
23827;DHT22;12094;50.822;4.376;2024-01-10T14:52:07;0.90;97.20
23827;DHT22;12094;50.822;4.376;2024-01-10T14:54:52;1.00;97.20
23827;DHT22;12094;50.822;4.376;2024-01-10T14:57:25;1.00;97.30
23827;DHT22;12094;50.822;4.376;2024-01-10T14:59:56;1.10;97.30
23827;DHT22;12094;50.822;4.376;2024-01-10T15:02:51;1.10;97.30
23827;DHT22;12094;50.822;4.376;2024-01-10T15:05:32;1.10;97.50
23827;DHT22;12094;50.822;4.376;2024-01-10T15:08:10;1.10;97.30
23827;DHT22;12094;50.822;4.376;2024-01-10T15:13:47;0.80;98.00
23827;DHT22;12094;50.822;4.376;2024-01-10T15:16:26;1.00;97.90
23827;DHT22;12094;50.822;4.376;2024-01-10T15:18:57;0.90;98.00
23827;DHT22;12094;50.822;4.376;2024-01-10T15:21:31;0.90;98.20
23827;DHT22;12094;50.822;4.376;2024-01-10T15:23:59;1.00;98.10
23827;DHT22;12094;50.822;4.376;2024-01-10T15:26:29;1.00;98.30
23827;DHT22;12094;50.822;4.376;2024-01-10T15:29:04;1.00;98.30
23827;DHT22;12094;50.822;4.376;2024-01-10T15:31:35;1.00;98.40
23827;DHT22;12094;50.822;4.376;2024-01-10T15:34:08;1.00;98.20
23827;DHT22;12094;50.822;4.376;2024-01-10T15:39:49;1.10;98.40
23827;DHT22;12094;50.822;4.376;2024-01-10T15:42:23;1.20;98.50
23827;DHT22;12094;50.822;4.376;2024-01-10T15:45:07;1.30;98.20
23827;DHT22;12094;50.822;4.376;2024-01-10T15:47:47;1.50;98.10
23827;DHT22;12094;50.822;4.376;2024-01-10T15:50:49;1.40;97.90
23827;DHT22;12094;50.822;4.376;2024-01-10T15:53:30;1.40;98.10
23827;DHT22;12094;50.822;4.376;2024-01-10T15:56:23;1.40;98.00
23827;DHT22;12094;50.822;4.376;2024-01-10T15:58:53;1.50;97.90
23827;DHT22;12094;50.822;4.376;2024-01-10T16:01:30;1.40;97.70
23827;DHT22;12094;50.822;4.376;2024-01-10T16:04:11;1.40;97.90
23827;DHT22;12094;50.822;4.376;2024-01-10T16:06:39;1.30;98.40
23827;DHT22;12094;50.822;4.376;2024-01-10T16:14:46;1.30;98.20
23827;DHT22;12094;50.822;4.376;2024-01-10T16:17:27;1.20;98.60
23827;DHT22;12094;50.822;4.376;2024-01-10T16:19:57;1.20;98.20
23827;DHT22;12094;50.822;4.376;2024-01-10T16:22:26;1.40;98.10
23827;DHT22;12094;50.822;4.376;2024-01-10T16:25:02;1.30;98.30
23827;DHT22;12094;50.822;4.376;2024-01-10T16:27:29;1.10;98.50
23827;DHT22;12094;50.822;4.376;2024-01-10T16:29:59;1.00;98.60
23827;DHT22;12094;50.822;4.376;2024-01-10T16:32:30;0.80;98.90
23827;DHT22;12094;50.822;4.376;2024-01-10T16:35:28;0.70;99.20
23827;DHT22;12094;50.822;4.376;2024-01-10T16:37:57;0.90;99.10
23827;DHT22;12094;50.822;4.376;2024-01-10T16:40:26;0.80;99.10
23827;DHT22;12094;50.822;4.376;2024-01-10T16:43:00;0.70;99.40
23827;DHT22;12094;50.822;4.376;2024-01-10T16:48:25;0.60;99.50
23827;DHT22;12094;50.822;4.376;2024-01-10T16:50:54;0.60;99.60
23827;DHT22;12094;50.822;4.376;2024-01-10T16:53:24;0.50;99.90
23827;DHT22;12094;50.822;4.376;2024-01-10T16:55:53;0.60;99.90
23827;DHT22;12094;50.822;4.376;2024-01-10T16:58:27;0.60;99.90
23827;DHT22;12094;50.822;4.376;2024-01-10T17:00:59;0.60;99.90
23827;DHT22;12094;50.822;4.376;2024-01-10T17:03:27;0.50;99.90
23827;DHT22;12094;50.822;4.376;2024-01-10T17:05:54;0.40;99.90
23827;DHT22;12094;50.822;4.376;2024-01-10T17:08:21;0.50;99.90
23827;DHT22;12094;50.822;4.376;2024-01-10T17:10:51;0.60;99.90
23827;DHT22;12094;50.822;4.376;2024-01-10T17:13:33;0.40;99.90
23827;DHT22;12094;50.822;4.376;2024-01-10T17:16:01;0.20;99.90
23827;DHT22;12094;50.822;4.376;2024-01-10T17:18:30;0.20;99.90
23827;DHT22;12094;50.822;4.376;2024-01-10T17:21:05;0.40;99.90
23827;DHT22;12094;50.822;4.376;2024-01-10T17:23:42;0.30;99.90
23827;DHT22;12094;50.822;4.376;2024-01-10T17:26:09;0.20;99.90
23827;DHT22;12094;50.822;4.376;2024-01-10T17:28:38;0.10;99.90
23827;DHT22;12094;50.822;4.376;2024-01-10T17:31:06;0.20;99.90
23827;DHT22;12094;50.822;4.376;2024-01-10T17:33:33;0.10;99.90
23827;DHT22;12094;50.822;4.376;2024-01-10T17:36:04;0.10;99.90
23827;DHT22;12094;50.822;4.376;2024-01-10T17:38:31;0.00;99.90
23827;DHT22;12094;50.822;4.376;2024-01-10T17:40:58;0.00;99.90
23827;DHT22;12094;50.822;4.376;2024-01-10T17:43:29;0.00;99.90
23827;DHT22;12094;50.822;4.376;2024-01-10T17:46:02;0.10;99.90